createdAt,value
2022-12-09T00:01:38.312Z,18.17
2022-12-09T00:06:40.578Z,25.70
2022-12-09T00:11:43.669Z,21.95
2022-12-09T00:16:46.115Z,26.15
2022-12-09T00:21:48.276Z,27.35
2022-12-09T00:26:50.474Z,27.17
2022-12-09T00:31:52.769Z,26.95
2022-12-09T00:36:55.148Z,27.33
2022-12-09T00:41:57.518Z,27.15
2022-12-09T00:46:59.610Z,29.60
2022-12-09T00:52:01.745Z,25.98
2022-12-09T00:57:04.492Z,28.48
2022-12-09T01:02:06.895Z,28.65
2022-12-09T01:07:10.341Z,27.13
2022-12-09T01:12:12.439Z,27.08
2022-12-09T01:17:15.671Z,25.63
2022-12-09T01:22:17.970Z,25.88
2022-12-09T01:27:20.305Z,22.15
2022-12-09T01:32:22.882Z,22.00
2022-12-09T01:37:25.446Z,21.95
2022-12-09T01:42:27.681Z,21.00
2022-12-09T01:47:29.782Z,21.08
2022-12-09T01:52:32.000Z,22.63
2022-12-09T01:57:34.494Z,20.92
2022-12-09T02:02:38.299Z,22.25
2022-12-09T02:07:41.461Z,21.67
2022-12-09T02:13:03.491Z,21.92
2022-12-09T02:18:24.789Z,21.30
2022-12-09T02:23:33.959Z,20.75
2022-12-09T02:28:55.115Z,21.75
2022-12-09T02:34:13.620Z,21.92
2022-12-09T02:39:25.658Z,22.48
2022-12-09T02:44:28.991Z,22.90
2022-12-09T02:49:34.482Z,23.95
2022-12-09T02:54:38.669Z,23.75
2022-12-09T02:59:41.462Z,23.15
2022-12-09T03:04:49.093Z,20.63
2022-12-09T03:09:59.046Z,22.13
2022-12-09T03:15:04.599Z,22.47
2022-12-09T03:20:12.889Z,22.35
2022-12-09T03:25:23.821Z,21.33
2022-12-09T03:35:42.398Z,24.08
2022-12-09T03:40:46.431Z,20.83
2022-12-09T03:45:48.956Z,21.83
2022-12-09T03:50:56.587Z,23.73
2022-12-09T03:56:17.865Z,22.50
2022-12-09T04:01:22.957Z,23.00
2022-12-09T04:06:25.894Z,24.45
2022-12-09T04:11:27.870Z,24.35
2022-12-09T04:16:30.262Z,22.67
2022-12-09T04:21:32.418Z,23.77
2022-12-09T04:26:34.965Z,23.98
2022-12-09T04:31:37.367Z,24.50
2022-12-09T04:36:39.601Z,21.33
2022-12-09T04:41:41.982Z,19.20
2022-12-09T04:46:44.308Z,18.50
2022-12-09T04:51:46.516Z,19.15
2022-12-09T04:56:49.538Z,18.65
2022-12-09T05:01:52.168Z,18.70
2022-12-09T05:06:54.367Z,18.90
2022-12-09T05:11:58.060Z,19.58
2022-12-09T05:17:00.292Z,19.98
2022-12-09T05:22:02.901Z,19.38
2022-12-09T05:27:05.393Z,19.77
2022-12-09T05:32:07.825Z,21.00
2022-12-09T05:37:14.161Z,19.98
2022-12-09T05:42:16.200Z,20.58
2022-12-09T05:47:18.455Z,19.50
2022-12-09T05:52:20.588Z,20.10
2022-12-09T05:57:23.002Z,19.80
2022-12-09T06:02:25.674Z,20.67
2022-12-09T06:07:28.631Z,20.73
2022-12-09T06:12:31.084Z,19.55
2022-12-09T06:17:33.567Z,20.20
2022-12-09T06:22:35.607Z,19.95
2022-12-09T06:27:37.879Z,20.30
2022-12-09T06:32:40.198Z,21.35
2022-12-09T06:37:42.978Z,19.90
2022-12-09T06:42:45.208Z,18.75
2022-12-09T06:47:48.317Z,19.02
2022-12-09T06:52:50.796Z,19.85
2022-12-09T06:57:52.981Z,20.33
2022-12-09T07:02:55.648Z,19.15
2022-12-09T07:07:58.286Z,19.30
2022-12-09T07:13:00.637Z,20.70
2022-12-09T07:18:02.927Z,21.23
2022-12-09T07:23:05.906Z,20.05
2022-12-09T07:28:08.002Z,27.65
2022-12-09T07:33:10.749Z,21.55
2022-12-09T07:38:12.847Z,21.92
2022-12-09T07:43:15.600Z,21.05
2022-12-09T07:48:17.833Z,23.33
2022-12-09T07:53:20.495Z,25.83
2022-12-09T07:58:22.754Z,25.60
2022-12-09T08:03:24.884Z,23.83
2022-12-09T08:08:28.438Z,22.25
2022-12-09T08:13:31.082Z,24.08
2022-12-09T08:18:34.385Z,23.55
2022-12-09T08:23:37.326Z,25.00
2022-12-09T08:28:40.332Z,23.42
2022-12-09T08:33:43.341Z,22.75
2022-12-09T08:38:46.326Z,23.42
2022-12-09T08:43:49.169Z,22.77
2022-12-09T08:48:52.021Z,22.58
2022-12-09T08:53:54.240Z,25.02
2022-12-09T08:58:56.602Z,29.92
2022-12-09T09:04:06.371Z,30.75
2022-12-09T09:09:11.764Z,31.95
2022-12-09T09:14:14.972Z,31.92
2022-12-09T09:19:22.964Z,30.63
2022-12-09T09:24:41.173Z,28.48
2022-12-09T09:29:43.827Z,27.52
2022-12-09T09:34:48.527Z,29.77
2022-12-09T09:39:51.371Z,29.65
2022-12-09T09:44:54.992Z,31.45
2022-12-09T09:50:19.707Z,39.03
2022-12-09T09:55:40.265Z,38.50
2022-12-09T10:01:07.421Z,33.93
2022-12-09T10:06:29.012Z,30.33
2022-12-09T10:11:59.783Z,32.78
2022-12-09T10:17:27.118Z,32.08
2022-12-09T10:22:38.242Z,33.47
2022-12-09T10:27:45.927Z,31.80
2022-12-09T10:32:49.164Z,31.98
2022-12-09T10:37:53.663Z,30.77
2022-12-09T10:43:16.764Z,32.30
2022-12-09T10:48:33.394Z,30.25
2022-12-09T10:53:36.883Z,32.45
2022-12-09T10:58:39.313Z,30.33
2022-12-09T11:03:49.090Z,27.85
2022-12-09T11:08:55.564Z,27.52
2022-12-09T11:13:58.368Z,32.65
2022-12-09T11:19:00.940Z,29.23
2022-12-09T11:24:04.910Z,29.35
2022-12-09T11:29:19.370Z,29.73
2022-12-09T11:34:26.273Z,30.48
2022-12-09T11:39:32.783Z,25.05
2022-12-09T11:44:36.223Z,23.67
2022-12-09T11:49:49.533Z,23.05
2022-12-09T11:55:12.442Z,21.63
2022-12-09T12:00:24.312Z,22.63
2022-12-09T12:05:34.818Z,22.00
2022-12-09T12:10:42.313Z,22.50
2022-12-09T12:15:51.148Z,23.60
2022-12-09T12:21:05.207Z,23.13
2022-12-09T12:26:19.581Z,22.05
2022-12-09T12:31:40.584Z,22.75
2022-12-09T12:37:03.254Z,19.70
2022-12-09T12:42:34.509Z,22.50
2022-12-09T12:47:48.933Z,22.15
2022-12-09T12:53:18.558Z,20.42
2022-12-09T12:58:52.723Z,19.25
2022-12-09T13:04:21.722Z,18.02
2022-12-09T13:09:35.755Z,18.48
2022-12-09T13:14:55.868Z,19.27
2022-12-09T13:20:03.683Z,20.30
2022-12-09T13:25:32.237Z,19.75
2022-12-09T13:31:08.076Z,19.23
2022-12-09T13:36:21.042Z,18.00
2022-12-09T13:41:26.162Z,20.55
2022-12-09T13:46:29.724Z,18.98
2022-12-09T13:51:44.895Z,20.10
2022-12-09T13:57:12.366Z,20.27
2022-12-09T14:02:24.197Z,20.63
2022-12-09T14:07:34.294Z,22.23
2022-12-09T14:12:44.075Z,20.40
2022-12-09T14:17:46.517Z,21.30
2022-12-09T14:23:12.253Z,19.02
2022-12-09T14:28:15.454Z,19.95
2022-12-09T14:33:22.047Z,27.60
2022-12-09T14:38:54.326Z,26.42
2022-12-09T14:44:33.900Z,26.38
2022-12-09T14:49:42.755Z,49.10
2022-12-09T14:54:53.495Z,20.25
2022-12-09T14:59:56.899Z,21.75
2022-12-09T15:05:01.708Z,21.23
2022-12-09T15:10:17.058Z,40.42
2022-12-09T15:15:21.067Z,38.95
2022-12-09T15:20:32.696Z,27.75
2022-12-09T15:25:45.297Z,21.98
2022-12-09T15:30:57.865Z,24.67
2022-12-09T15:36:07.009Z,20.20
2022-12-09T15:41:28.144Z,28.15
2022-12-09T15:51:35.722Z,19.67
2022-12-09T15:56:59.978Z,19.38
2022-12-09T16:02:02.546Z,29.60
2022-12-09T16:07:09.648Z,40.42
2022-12-09T16:12:26.490Z,41.10
2022-12-09T16:17:32.395Z,30.63
2022-12-09T16:22:34.642Z,24.17
2022-12-09T16:27:37.382Z,24.27
2022-12-09T16:33:00.946Z,22.42
2022-12-09T16:38:11.822Z,25.90
2022-12-09T16:43:16.997Z,25.92
2022-12-09T16:48:21.014Z,25.63
2022-12-09T16:53:30.631Z,22.45
2022-12-09T16:58:34.382Z,24.17
2022-12-09T17:03:41.532Z,30.55
2022-12-09T17:08:44.491Z,44.70
2022-12-09T17:13:46.900Z,32.15
2022-12-09T17:18:49.545Z,44.15
2022-12-09T17:23:51.846Z,62.22
2022-12-09T17:28:59.802Z,33.55
2022-12-09T17:34:04.503Z,27.27
2022-12-09T17:39:07.284Z,25.92
2022-12-09T17:44:09.640Z,29.10
2022-12-09T17:49:11.812Z,32.70
2022-12-09T17:54:13.915Z,58.63
2022-12-09T17:59:17.254Z,38.55
2022-12-09T18:04:19.245Z,29.63
2022-12-09T18:09:22.970Z,34.95
2022-12-09T18:14:26.237Z,32.55
2022-12-09T18:19:29.851Z,25.83
2022-12-09T18:24:31.926Z,26.67
2022-12-09T18:29:34.090Z,27.45
2022-12-09T18:34:36.582Z,32.28
2022-12-09T18:39:38.603Z,29.13
2022-12-09T18:44:40.959Z,34.53
2022-12-09T18:49:42.985Z,45.75
2022-12-09T18:54:47.605Z,47.42
2022-12-09T18:59:50.381Z,42.65
2022-12-09T19:04:52.627Z,41.92
2022-12-09T19:09:54.833Z,41.88
2022-12-09T19:14:56.858Z,48.58
2022-12-09T19:19:59.021Z,44.33
2022-12-09T19:25:01.119Z,42.85
2022-12-09T19:30:04.865Z,58.33
2022-12-09T19:35:07.349Z,35.22
2022-12-09T19:40:10.291Z,33.33
2022-12-09T19:45:14.454Z,44.08
2022-12-09T19:50:17.223Z,27.30
2022-12-09T19:55:19.344Z,39.88
2022-12-09T20:00:21.477Z,33.72
2022-12-09T20:05:23.503Z,44.17
2022-12-09T20:10:26.609Z,47.67
2022-12-09T20:15:28.619Z,41.58
2022-12-09T20:20:30.698Z,37.85
2022-12-09T20:25:36.283Z,32.50
2022-12-09T20:30:38.423Z,28.90
2022-12-09T20:35:40.599Z,29.00
2022-12-09T20:40:42.645Z,27.67
2022-12-09T20:45:44.764Z,43.70
2022-12-09T20:50:46.920Z,30.23
2022-12-09T20:55:59.499Z,28.20
2022-12-09T21:01:09.593Z,26.45
2022-12-09T21:06:15.169Z,26.98
2022-12-09T21:11:20.674Z,27.15
2022-12-09T21:16:25.461Z,34.92
2022-12-09T21:21:31.185Z,49.40
2022-12-09T21:26:33.387Z,35.97
2022-12-09T21:31:37.036Z,31.45
2022-12-09T21:36:42.632Z,37.80
2022-12-09T21:41:45.132Z,29.00
2022-12-09T21:46:47.369Z,29.25
2022-12-09T21:51:49.365Z,28.90
2022-12-09T21:56:52.301Z,39.85
2022-12-09T22:01:55.998Z,33.67
2022-12-09T22:06:58.248Z,29.65
2022-12-09T22:12:00.430Z,28.13
2022-12-09T22:17:03.759Z,28.88
2022-12-09T22:22:08.990Z,29.80
2022-12-09T22:27:11.649Z,36.45
2022-12-09T22:32:13.730Z,31.55
2022-12-09T22:37:42.304Z,28.92
2022-12-09T22:42:40.522Z,28.92
2022-12-09T22:47:42.552Z,30.60
2022-12-09T22:52:44.641Z,36.80
2022-12-09T22:57:46.688Z,29.52
2022-12-09T23:02:48.958Z,27.08
2022-12-09T23:07:51.174Z,28.55
2022-12-09T23:12:53.370Z,26.65
2022-12-09T23:17:55.735Z,26.70
2022-12-09T23:22:57.862Z,33.97
2022-12-09T23:28:00.018Z,27.02
2022-12-09T23:33:02.196Z,27.90
2022-12-09T23:38:04.478Z,25.52
2022-12-09T23:43:06.470Z,27.63
2022-12-09T23:48:08.498Z,27.95
2022-12-09T23:53:10.496Z,26.30
2022-12-09T23:58:12.522Z,27.13
